Time;durP1;ratioP1;P1;durP2;ratioP2;P2;SDS_P1;SDS_P2;PMS_P1;PMS_P2;Temp;Humidity;BMP_temperature;BMP_pressure;BME280_temperature;BME280_humidity;BME280_pressure;Samples;Min_cycle;Max_cycle;Signal;HPM_P1;HPM_P2
2023/10/17 00:00:59;;;;;;;;;;;6.80;99.90;;;;;;5093678;28;19924;-32
2023/10/17 00:03:26;;;;;;;;;;;6.80;99.90;;;;;;5111514;28;19924;-32
2023/10/17 00:05:54;;;;;;;;;;;6.70;99.90;;;;;;5094474;28;20436;-32
2023/10/17 00:08:21;;;;;;;;;;;6.70;99.90;;;;;;5097218;28;20541;-32
2023/10/17 00:10:49;;;;;;;;;;;6.70;99.90;;;;;;5096516;28;19936;-32
2023/10/17 00:13:38;;;;;;;;;;;6.60;99.90;;;;;;5115814;28;19924;-31
2023/10/17 00:16:11;;;;;;;;;;;6.60;99.90;;;;;;5094280;28;19931;-31
2023/10/17 00:18:38;;;;;;;;;;;6.60;99.90;;;;;;5097524;28;20016;-32
2023/10/17 00:21:10;;;;;;;;;;;6.60;99.90;;;;;;5098607;28;19928;-32
2023/10/17 00:23:39;;;;;;;;;;;6.50;99.90;;;;;;5122155;27;19930;-32
2023/10/17 00:26:08;;;;;;;;;;;6.50;99.90;;;;;;5096434;28;20371;-32
2023/10/17 00:28:36;;;;;;;;;;;6.50;99.90;;;;;;5097668;28;20367;-33
2023/10/17 00:31:04;;;;;;;;;;;6.50;99.90;;;;;;5097098;28;20295;-31
2023/10/17 00:33:37;;;;;;;;;;;6.50;99.90;;;;;;5097682;28;20378;-33
2023/10/17 00:36:06;;;;;;;;;;;6.50;99.90;;;;;;5115915;28;19924;-32
2023/10/17 00:38:35;;;;;;;;;;;6.50;99.90;;;;;;5097441;28;20383;-32
2023/10/17 00:41:03;;;;;;;;;;;6.50;99.90;;;;;;5115224;28;19923;-32
2023/10/17 00:43:31;;;;;;;;;;;6.50;99.90;;;;;;5114130;28;20329;-31
2023/10/17 00:45:58;;;;;;;;;;;6.40;99.90;;;;;;5114716;28;19971;-32
2023/10/17 00:48:26;;;;;;;;;;;6.40;99.90;;;;;;5097915;28;19923;-31
2023/10/17 00:50:57;;;;;;;;;;;6.40;99.90;;;;;;5114986;28;19928;-32
2023/10/17 00:53:26;;;;;;;;;;;6.30;99.90;;;;;;5096863;28;19923;-31
2023/10/17 00:55:55;;;;;;;;;;;6.30;99.90;;;;;;5096368;28;19945;-33
2023/10/17 00:58:24;;;;;;;;;;;6.30;99.90;;;;;;5096920;28;19946;-32
2023/10/17 01:00:58;;;;;;;;;;;6.30;99.90;;;;;;5097529;28;19928;-32
2023/10/17 01:03:25;;;;;;;;;;;6.30;99.90;;;;;;5097728;28;19981;-32
2023/10/17 01:05:57;;;;;;;;;;;6.30;99.90;;;;;;5113507;28;19932;-32
2023/10/17 01:08:37;;;;;;;;;;;6.30;99.90;;;;;;5094430;28;20015;-32
2023/10/17 01:11:08;;;;;;;;;;;6.30;99.90;;;;;;5110251;27;20384;-32
2023/10/17 01:13:37;;;;;;;;;;;6.30;99.90;;;;;;5113156;28;20307;-32
2023/10/17 01:16:06;;;;;;;;;;;6.30;99.90;;;;;;5096520;28;19928;-33
2023/10/17 01:18:35;;;;;;;;;;;6.30;99.90;;;;;;5115145;28;19930;-31
2023/10/17 01:21:01;;;;;;;;;;;6.30;99.90;;;;;;5096529;28;20303;-32
2023/10/17 01:23:30;;;;;;;;;;;6.30;99.90;;;;;;5096309;28;19924;-32
2023/10/17 01:25:58;;;;;;;;;;;6.30;99.90;;;;;;5094492;28;19930;-32
2023/10/17 01:28:24;;;;;;;;;;;6.20;99.90;;;;;;5096060;28;20014;-32
2023/10/17 01:30:55;;;;;;;;;;;6.30;99.90;;;;;;5095556;28;19971;-32
2023/10/17 01:33:24;;;;;;;;;;;6.20;99.90;;;;;;5114132;28;20617;-31
2023/10/17 01:35:52;;;;;;;;;;;6.20;99.90;;;;;;5112276;27;20028;-32
2023/10/17 01:38:19;;;;;;;;;;;6.20;99.90;;;;;;5096948;28;19924;-33
2023/10/17 01:40:45;;;;;;;;;;;6.20;99.90;;;;;;5111889;28;19924;-32
2023/10/17 01:43:13;;;;;;;;;;;6.20;99.90;;;;;;5096887;28;19923;-32
2023/10/17 01:45:42;;;;;;;;;;;6.20;99.90;;;;;;5095223;28;19927;-34
2023/10/17 01:48:11;;;;;;;;;;;6.20;99.90;;;;;;5095787;28;19924;-33
2023/10/17 01:50:39;;;;;;;;;;;6.10;99.90;;;;;;5094753;28;20307;-32
2023/10/17 01:53:12;;;;;;;;;;;6.10;99.90;;;;;;5096078;28;19924;-32
2023/10/17 01:55:39;;;;;;;;;;;6.10;99.90;;;;;;5096377;28;19924;-32
2023/10/17 01:58:07;;;;;;;;;;;6.10;99.90;;;;;;5114548;28;19960;-32
2023/10/17 02:00:38;;;;;;;;;;;6.00;99.90;;;;;;5095992;28;20384;-33
2023/10/17 02:03:05;;;;;;;;;;;6.00;99.90;;;;;;5113795;28;19923;-32
2023/10/17 02:05:32;;;;;;;;;;;6.00;99.90;;;;;;5093772;28;19930;-32
2023/10/17 02:07:59;;;;;;;;;;;5.90;99.90;;;;;;5094170;28;19924;-32
2023/10/17 02:10:28;;;;;;;;;;;5.80;99.90;;;;;;5114308;28;19932;-32
2023/10/17 02:12:55;;;;;;;;;;;5.80;99.90;;;;;;5095612;28;20352;-32
2023/10/17 02:15:23;;;;;;;;;;;5.70;99.90;;;;;;5099653;28;19924;-32
2023/10/17 02:17:52;;;;;;;;;;;5.70;99.90;;;;;;5094931;28;20264;-32
2023/10/17 02:20:28;;;;;;;;;;;5.70;99.90;;;;;;5113989;28;19940;-32
2023/10/17 02:22:57;;;;;;;;;;;5.60;99.90;;;;;;5095703;28;19931;-31
2023/10/17 02:25:31;;;;;;;;;;;5.70;99.90;;;;;;5112563;28;20272;-32
2023/10/17 02:27:58;;;;;;;;;;;5.70;99.90;;;;;;5111765;28;19935;-32
2023/10/17 02:30:25;;;;;;;;;;;5.70;99.90;;;;;;5094489;28;19924;-32
2023/10/17 02:32:53;;;;;;;;;;;5.70;99.90;;;;;;5112900;28;19928;-32
2023/10/17 02:35:21;;;;;;;;;;;5.60;99.90;;;;;;5095645;28;19931;-34
2023/10/17 02:37:48;;;;;;;;;;;5.60;99.90;;;;;;5092561;28;19938;-32
2023/10/17 02:40:20;;;;;;;;;;;5.60;99.90;;;;;;5113640;28;19977;-32
2023/10/17 02:42:47;;;;;;;;;;;5.60;99.90;;;;;;5112727;28;19924;-32
2023/10/17 02:45:14;;;;;;;;;;;5.60;99.90;;;;;;5094067;28;19967;-33
2023/10/17 02:47:43;;;;;;;;;;;5.60;99.90;;;;;;5110669;28;19924;-32
2023/10/17 02:50:22;;;;;;;;;;;5.60;99.90;;;;;;5111897;28;20386;-32
2023/10/17 02:52:51;;;;;;;;;;;5.50;99.90;;;;;;5093886;28;19928;-31
2023/10/17 02:55:23;;;;;;;;;;;5.50;99.90;;;;;;5107933;28;20295;-33
2023/10/17 02:57:51;;;;;;;;;;;5.50;99.90;;;;;;5110354;28;20377;-32
2023/10/17 03:00:23;;;;;;;;;;;5.50;99.90;;;;;;5095188;28;19924;-32
2023/10/17 03:02:52;;;;;;;;;;;5.50;99.90;;;;;;5093432;28;20015;-32
2023/10/17 03:05:20;;;;;;;;;;;5.40;99.90;;;;;;5091220;28;19934;-32
2023/10/17 03:07:49;;;;;;;;;;;5.40;99.90;;;;;;5092369;28;20009;-33
2023/10/17 03:10:23;;;;;;;;;;;5.40;99.90;;;;;;5095059;28;20304;-32
2023/10/17 03:12:55;;;;;;;;;;;5.30;99.90;;;;;;5093662;28;19939;-31
2023/10/17 03:15:23;;;;;;;;;;;5.30;99.90;;;;;;5104430;28;19925;-32
2023/10/17 03:17:53;;;;;;;;;;;5.30;99.90;;;;;;5102193;28;19927;-32
2023/10/17 03:20:36;;;;;;;;;;;5.30;99.90;;;;;;5112099;28;19927;-32
2023/10/17 03:23:03;;;;;;;;;;;5.30;99.90;;;;;;5094373;28;19971;-32
2023/10/17 03:25:36;;;;;;;;;;;5.30;99.90;;;;;;5111136;28;19985;-32
2023/10/17 03:28:04;;;;;;;;;;;5.30;99.90;;;;;;5110510;28;19953;-32
2023/10/17 03:30:30;;;;;;;;;;;5.30;99.90;;;;;;5110764;28;20297;-32
2023/10/17 03:33:08;;;;;;;;;;;5.20;99.90;;;;;;5093877;28;19938;-33
2023/10/17 03:35:36;;;;;;;;;;;5.20;99.90;;;;;;5092057;28;20384;-32
2023/10/17 03:38:03;;;;;;;;;;;5.30;99.90;;;;;;5090320;28;19943;-32
2023/10/17 03:40:34;;;;;;;;;;;5.20;99.90;;;;;;5081671;28;20275;-32
2023/10/17 03:43:11;;;;;;;;;;;5.20;99.90;;;;;;5106594;28;20333;-32
2023/10/17 03:45:44;;;;;;;;;;;5.20;99.90;;;;;;5110886;28;20288;-32
2023/10/17 03:48:14;;;;;;;;;;;5.20;99.90;;;;;;5093032;28;19924;-31
2023/10/17 03:50:49;;;;;;;;;;;5.10;99.90;;;;;;5093652;28;20017;-32
2023/10/17 03:53:15;;;;;;;;;;;5.10;99.90;;;;;;5074633;28;20368;-32
2023/10/17 03:55:42;;;;;;;;;;;5.10;99.90;;;;;;5091401;28;19927;-32
2023/10/17 03:58:19;;;;;;;;;;;5.10;99.90;;;;;;5093231;28;19993;-32
2023/10/17 04:00:46;;;;;;;;;;;5.10;99.90;;;;;;5093354;28;20371;-33
2023/10/17 04:03:21;;;;;;;;;;;5.10;99.90;;;;;;5093588;28;19974;-32
2023/10/17 04:05:50;;;;;;;;;;;5.10;99.90;;;;;;5093493;28;20023;-32
2023/10/17 04:08:18;;;;;;;;;;;5.10;99.90;;;;;;5091699;28;19954;-33
2023/10/17 04:10:49;;;;;;;;;;;5.10;99.90;;;;;;5093562;28;20521;-32
2023/10/17 04:13:21;;;;;;;;;;;5.10;99.90;;;;;;5093181;28;19956;-32
2023/10/17 04:15:47;;;;;;;;;;;5.10;99.90;;;;;;5089612;28;19924;-32
2023/10/17 04:18:15;;;;;;;;;;;5.10;99.90;;;;;;5111041;28;20364;-32
2023/10/17 04:20:46;;;;;;;;;;;5.10;99.90;;;;;;5094399;28;19942;-32
2023/10/17 04:23:26;;;;;;;;;;;5.20;99.90;;;;;;5093923;28;19923;-32
2023/10/17 04:25:55;;;;;;;;;;;5.20;99.90;;;;;;5093819;28;20452;-32
2023/10/17 04:28:26;;;;;;;;;;;5.20;99.90;;;;;;5110738;28;19923;-31
2023/10/17 04:30:56;;;;;;;;;;;5.20;99.90;;;;;;5109298;28;20049;-32
2023/10/17 04:33:28;;;;;;;;;;;5.20;99.90;;;;;;5111517;28;19928;-32
2023/10/17 04:35:59;;;;;;;;;;;5.20;99.90;;;;;;5094226;28;19931;-33
2023/10/17 04:38:36;;;;;;;;;;;5.30;99.90;;;;;;5102477;28;19931;-32
2023/10/17 04:41:13;;;;;;;;;;;5.30;99.90;;;;;;5088143;28;19924;-32
2023/10/17 04:43:44;;;;;;;;;;;5.30;99.90;;;;;;5095603;28;20011;-32
2023/10/17 04:46:11;;;;;;;;;;;5.30;99.90;;;;;;5104653;28;19932;-32
2023/10/17 04:48:40;;;;;;;;;;;5.40;99.90;;;;;;5110286;28;20391;-32
2023/10/17 04:51:19;;;;;;;;;;;5.40;99.90;;;;;;5092588;28;19924;-32
2023/10/17 04:53:50;;;;;;;;;;;5.40;99.90;;;;;;5094849;28;19972;-32
2023/10/17 04:56:16;;;;;;;;;;;5.40;99.90;;;;;;5094714;28;19928;-31
2023/10/17 04:58:48;;;;;;;;;;;5.50;99.90;;;;;;5096557;28;19950;-32
2023/10/17 05:01:34;;;;;;;;;;;5.50;99.90;;;;;;5111539;28;19946;-31
2023/10/17 05:04:03;;;;;;;;;;;5.50;99.90;;;;;;5096577;28;20010;-33
2023/10/17 06:16:49;;;;;;;;;;;5.50;99.90;;;;;;5112601;27;19938;-31
2023/10/17 06:18:19;;;;;;;;;;;6.00;99.90;;;;;;5062576;28;19924;-32
2023/10/17 06:24:06;;;;;;;;;;;6.00;99.90;;;;;;5075806;28;20401;-32
2023/10/17 06:30:05;;;;;;;;;;;6.00;99.90;;;;;;5110677;28;20003;-32
2023/10/17 06:31:43;;;;;;;;;;;6.00;99.90;;;;;;5110990;28;20295;-33
2023/10/17 06:34:09;;;;;;;;;;;6.00;99.90;;;;;;5113741;28;19935;-32
2023/10/17 06:36:40;;;;;;;;;;;6.00;99.90;;;;;;5094368;28;19927;-33
2023/10/17 06:39:15;;;;;;;;;;;6.10;99.90;;;;;;5095921;28;19931;-32
2023/10/17 06:41:41;;;;;;;;;;;6.10;99.90;;;;;;5076153;28;19924;-32
2023/10/17 06:44:10;;;;;;;;;;;6.10;99.90;;;;;;5087070;28;19930;-32
2023/10/17 06:46:40;;;;;;;;;;;6.10;99.90;;;;;;5093171;28;19962;-32
2023/10/17 06:49:09;;;;;;;;;;;6.10;99.90;;;;;;5114373;28;19924;-32
2023/10/17 06:51:39;;;;;;;;;;;6.30;99.90;;;;;;5095810;28;19947;-31
2023/10/17 06:54:12;;;;;;;;;;;6.30;99.90;;;;;;5113914;28;20299;-32
2023/10/17 06:56:44;;;;;;;;;;;6.30;99.90;;;;;;5096102;28;19930;-33
2023/10/17 06:59:24;;;;;;;;;;;6.30;99.90;;;;;;5096066;28;19942;-33
2023/10/17 07:02:10;;;;;;;;;;;6.30;99.90;;;;;;5095264;28;20394;-32
2023/10/17 07:04:40;;;;;;;;;;;6.40;99.90;;;;;;5113699;28;19968;-33
2023/10/17 07:07:06;;;;;;;;;;;6.40;99.90;;;;;;5095434;28;19983;-32
2023/10/17 07:09:37;;;;;;;;;;;6.40;99.90;;;;;;5113556;28;19985;-32
2023/10/17 07:12:05;;;;;;;;;;;6.50;99.90;;;;;;5095523;28;19962;-32
2023/10/17 07:14:32;;;;;;;;;;;6.50;99.90;;;;;;5113382;28;20287;-32
2023/10/17 07:17:00;;;;;;;;;;;6.60;99.90;;;;;;5095309;28;19924;-31
2023/10/17 07:19:47;;;;;;;;;;;6.60;99.90;;;;;;5095683;28;19987;-32
2023/10/17 07:22:15;;;;;;;;;;;6.70;99.90;;;;;;5095403;28;20415;-32
2023/10/17 07:24:48;;;;;;;;;;;6.70;99.90;;;;;;5113541;28;19923;-32
2023/10/17 07:27:22;;;;;;;;;;;6.80;99.90;;;;;;5095400;28;19970;-32
2023/10/17 07:29:58;;;;;;;;;;;6.90;99.90;;;;;;5095036;28;20372;-32
2023/10/17 07:32:25;;;;;;;;;;;6.90;99.90;;;;;;5095118;28;20014;-32
2023/10/17 07:34:58;;;;;;;;;;;7.00;99.90;;;;;;5095055;28;20464;-32
2023/10/17 07:37:26;;;;;;;;;;;7.10;99.90;;;;;;5095346;28;19924;-33
2023/10/17 07:40:16;;;;;;;;;;;7.10;99.90;;;;;;5094944;28;20011;-34
2023/10/17 07:42:45;;;;;;;;;;;7.20;99.90;;;;;;5113240;28;19924;-32
2023/10/17 07:45:15;;;;;;;;;;;7.30;99.90;;;;;;5094819;28;19924;-32
2023/10/17 07:47:42;;;;;;;;;;;7.30;99.90;;;;;;5091911;28;19931;-32
2023/10/17 07:50:12;;;;;;;;;;;7.40;99.90;;;;;;5095239;28;19969;-32
2023/10/17 07:52:43;;;;;;;;;;;7.50;99.90;;;;;;5094742;28;20037;-33
2023/10/17 07:55:19;;;;;;;;;;;7.60;99.90;;;;;;5095310;28;19928;-33
2023/10/17 07:57:51;;;;;;;;;;;7.70;99.90;;;;;;5111499;28;20011;-33
2023/10/17 08:00:26;;;;;;;;;;;7.90;99.90;;;;;;5095215;28;19964;-33
2023/10/17 08:02:54;;;;;;;;;;;8.00;99.90;;;;;;5094540;28;20366;-33
2023/10/17 08:05:23;;;;;;;;;;;8.20;99.90;;;;;;5094502;28;20517;-33
2023/10/17 08:08:01;;;;;;;;;;;8.30;99.90;;;;;;5111073;28;20378;-32
2023/10/17 08:10:32;;;;;;;;;;;8.40;99.90;;;;;;5094584;28;20371;-30
2023/10/17 08:13:00;;;;;;;;;;;8.50;99.90;;;;;;5110293;28;19937;-31
2023/10/17 08:15:32;;;;;;;;;;;8.60;99.90;;;;;;5092386;28;19923;-31
2023/10/17 08:17:59;;;;;;;;;;;8.70;99.90;;;;;;5074551;28;19924;-31
2023/10/17 08:20:45;;;;;;;;;;;8.80;99.90;;;;;;5100114;28;19924;-31
2023/10/17 08:23:12;;;;;;;;;;;8.80;99.90;;;;;;5095052;28;19924;-31
2023/10/17 08:25:52;;;;;;;;;;;8.90;99.90;;;;;;5098989;28;20383;-32
2023/10/17 08:28:33;;;;;;;;;;;9.00;99.90;;;;;;5115252;28;20317;-32
2023/10/17 08:31:05;;;;;;;;;;;9.10;99.90;;;;;;5098697;28;20034;-31
2023/10/17 08:33:40;;;;;;;;;;;9.30;99.90;;;;;;5113814;27;19955;-32
2023/10/17 08:36:10;;;;;;;;;;;9.30;99.90;;;;;;5096831;28;19931;-31
2023/10/17 08:38:40;;;;;;;;;;;9.40;99.90;;;;;;5096825;28;19930;-32
2023/10/17 08:41:06;;;;;;;;;;;9.60;99.90;;;;;;5096791;28;19962;-31
2023/10/17 08:43:32;;;;;;;;;;;9.60;99.90;;;;;;5095919;28;19958;-31
2023/10/17 08:45:59;;;;;;;;;;;9.70;99.90;;;;;;5094571;28;19930;-31
2023/10/17 08:48:26;;;;;;;;;;;9.80;99.90;;;;;;5097994;28;19923;-31
2023/10/17 08:50:55;;;;;;;;;;;9.80;99.90;;;;;;5098162;28;19961;-32
2023/10/17 08:53:23;;;;;;;;;;;9.90;99.90;;;;;;5116107;28;19998;-31
2023/10/17 08:55:51;;;;;;;;;;;9.90;99.90;;;;;;5097695;28;19924;-31
2023/10/17 08:58:24;;;;;;;;;;;10.00;99.90;;;;;;5114996;27;19931;-31
2023/10/17 09:00:55;;;;;;;;;;;10.00;99.90;;;;;;5095531;28;20481;-31
2023/10/17 09:03:23;;;;;;;;;;;10.10;99.90;;;;;;5097352;28;20006;-32
2023/10/17 09:05:50;;;;;;;;;;;10.20;99.90;;;;;;5095410;28;19923;-31
2023/10/17 09:08:21;;;;;;;;;;;10.20;99.90;;;;;;5115829;28;19923;-32
2023/10/17 09:10:51;;;;;;;;;;;10.30;99.90;;;;;;5098172;28;20465;-31
2023/10/17 09:16:08;;;;;;;;;;;10.50;99.90;;;;;;5074668;28;20302;-31
2023/10/17 09:18:40;;;;;;;;;;;10.50;99.90;;;;;;5095968;28;20006;-31
2023/10/17 09:21:08;;;;;;;;;;;10.50;99.90;;;;;;5095726;28;19924;-31
2023/10/17 09:23:38;;;;;;;;;;;10.50;99.90;;;;;;5112490;28;19931;-32
2023/10/17 09:26:07;;;;;;;;;;;10.60;99.90;;;;;;5095896;28;19924;-32
2023/10/17 09:28:35;;;;;;;;;;;10.60;99.90;;;;;;5096813;28;19945;-31
2023/10/17 09:31:06;;;;;;;;;;;10.70;99.90;;;;;;5114232;28;20000;-31
2023/10/17 09:33:33;;;;;;;;;;;10.70;99.90;;;;;;5115205;28;19924;-31
2023/10/17 09:36:00;;;;;;;;;;;10.80;99.90;;;;;;5096457;28;19958;-31
2023/10/17 09:38:27;;;;;;;;;;;10.80;99.90;;;;;;5087861;28;19973;-31
2023/10/17 09:40:54;;;;;;;;;;;10.80;99.90;;;;;;5081795;28;20427;-31
2023/10/17 09:43:21;;;;;;;;;;;10.90;99.90;;;;;;5074569;28;19978;-31
2023/10/17 09:45:49;;;;;;;;;;;10.90;99.90;;;;;;5094666;28;19977;-32
2023/10/17 09:48:15;;;;;;;;;;;11.00;99.90;;;;;;5080769;28;19960;-32
2023/10/17 09:50:43;;;;;;;;;;;11.10;99.90;;;;;;5115001;28;19938;-31
2023/10/17 09:53:12;;;;;;;;;;;11.10;99.90;;;;;;5095710;28;19971;-32
2023/10/17 09:55:39;;;;;;;;;;;11.10;99.90;;;;;;5114613;28;19938;-31
2023/10/17 09:58:08;;;;;;;;;;;11.10;99.90;;;;;;5094817;28;19928;-31
2023/10/17 10:00:36;;;;;;;;;;;11.20;99.90;;;;;;5096483;28;20048;-31
2023/10/17 10:03:04;;;;;;;;;;;11.20;99.90;;;;;;5113793;28;20373;-32
2023/10/17 10:05:32;;;;;;;;;;;11.30;99.90;;;;;;5111084;28;20427;-31
2023/10/17 10:08:01;;;;;;;;;;;11.30;99.90;;;;;;5094637;28;19928;-31
2023/10/17 10:10:52;;;;;;;;;;;11.30;99.90;;;;;;5112488;28;19938;-31
2023/10/17 10:13:19;;;;;;;;;;;11.40;99.90;;;;;;5068646;28;19954;-31
2023/10/17 10:15:49;;;;;;;;;;;11.40;99.90;;;;;;5104994;28;19924;-31
2023/10/17 10:18:18;;;;;;;;;;;11.40;99.90;;;;;;5112420;28;20054;-32
2023/10/17 10:21:03;;;;;;;;;;;11.60;99.90;;;;;;5114434;28;19924;-32
2023/10/17 10:23:30;;;;;;;;;;;11.70;99.90;;;;;;5096381;28;19928;-31
2023/10/17 10:26:11;;;;;;;;;;;11.70;99.90;;;;;;5114439;28;19985;-32
2023/10/17 10:28:38;;;;;;;;;;;11.80;99.90;;;;;;5093049;28;19973;-32
2023/10/17 10:31:20;;;;;;;;;;;11.90;99.90;;;;;;5095536;28;20009;-31
2023/10/17 10:33:48;;;;;;;;;;;11.80;99.90;;;;;;5095404;28;19985;-31
2023/10/17 10:36:14;;;;;;;;;;;11.90;99.90;;;;;;5096312;28;20295;-31
2023/10/17 10:38:41;;;;;;;;;;;11.90;99.90;;;;;;5096219;28;19923;-31
2023/10/17 10:41:08;;;;;;;;;;;12.00;99.90;;;;;;5111774;28;19932;-31
2023/10/17 10:43:34;;;;;;;;;;;12.00;99.90;;;;;;5094430;28;19930;-32
2023/10/17 10:46:01;;;;;;;;;;;12.00;99.90;;;;;;5094357;28;20383;-31
2023/10/17 10:48:28;;;;;;;;;;;12.10;99.90;;;;;;5096332;28;19924;-32
2023/10/17 10:50:56;;;;;;;;;;;12.10;99.90;;;;;;5094592;28;19963;-31
2023/10/17 10:53:22;;;;;;;;;;;12.10;99.90;;;;;;5093737;28;20315;-31
2023/10/17 10:55:53;;;;;;;;;;;12.30;99.90;;;;;;5096024;28;19971;-31
2023/10/17 10:58:20;;;;;;;;;;;12.40;99.90;;;;;;5096024;28;20469;-32
2023/10/17 11:00:47;;;;;;;;;;;12.50;99.90;;;;;;5095916;28;19930;-31
2023/10/17 11:03:13;;;;;;;;;;;12.50;99.90;;;;;;5113527;28;19969;-31
2023/10/17 11:05:52;;;;;;;;;;;12.60;99.90;;;;;;5113165;28;20279;-31
2023/10/17 11:08:20;;;;;;;;;;;12.60;99.90;;;;;;5113521;28;20394;-31
2023/10/17 11:10:47;;;;;;;;;;;12.70;99.90;;;;;;5095741;28;19988;-31
2023/10/17 11:13:15;;;;;;;;;;;12.70;99.90;;;;;;5112346;28;19930;-31
2023/10/17 11:15:43;;;;;;;;;;;12.80;99.90;;;;;;5095634;28;20342;-30
2023/10/17 11:18:10;;;;;;;;;;;12.80;99.90;;;;;;5095308;28;19962;-31
2023/10/17 11:20:40;;;;;;;;;;;12.80;99.90;;;;;;5095367;28;20019;-31
2023/10/17 11:23:07;;;;;;;;;;;12.80;99.90;;;;;;5093160;28;20372;-31
2023/10/17 11:25:35;;;;;;;;;;;12.90;99.90;;;;;;5095391;28;20420;-31
2023/10/17 11:28:06;;;;;;;;;;;13.00;99.90;;;;;;5113304;28;19969;-31
2023/10/17 11:30:40;;;;;;;;;;;13.00;99.90;;;;;;5094642;28;21358;-32
2023/10/17 11:33:10;;;;;;;;;;;13.00;99.90;;;;;;5110846;28;19935;-32
2023/10/17 11:35:37;;;;;;;;;;;13.00;99.90;;;;;;5095530;28;19975;-31
2023/10/17 11:38:06;;;;;;;;;;;13.10;99.90;;;;;;5095075;28;20444;-31
2023/10/17 11:40:45;;;;;;;;;;;13.10;99.90;;;;;;5095163;28;19935;-31
2023/10/17 11:43:15;;;;;;;;;;;13.10;99.90;;;;;;5093059;28;19954;-32
2023/10/17 11:45:42;;;;;;;;;;;13.10;99.90;;;;;;5112137;28;20301;-31
2023/10/17 11:48:23;;;;;;;;;;;13.20;99.90;;;;;;5112971;28;20454;-32
2023/10/17 11:50:50;;;;;;;;;;;13.30;99.90;;;;;;5094973;28;19938;-32
2023/10/17 11:53:17;;;;;;;;;;;13.30;99.90;;;;;;5092681;28;19932;-31
2023/10/17 11:55:46;;;;;;;;;;;13.20;99.90;;;;;;5094950;28;20044;-32
2023/10/17 11:58:20;;;;;;;;;;;13.20;99.90;;;;;;5094354;28;19957;-31
2023/10/17 12:00:50;;;;;;;;;;;13.30;99.90;;;;;;5094450;28;19934;-31
2023/10/17 12:03:19;;;;;;;;;;;13.30;99.90;;;;;;5091138;28;20011;-32
2023/10/17 12:05:46;;;;;;;;;;;13.30;99.90;;;;;;5093953;28;19931;-32
2023/10/17 12:08:16;;;;;;;;;;;13.30;99.90;;;;;;5094469;28;19984;-31
2023/10/17 12:10:43;;;;;;;;;;;13.40;99.90;;;;;;5109193;28;20438;-32
2023/10/17 12:13:14;;;;;;;;;;;13.40;99.90;;;;;;5094306;28;20475;-31
2023/10/17 12:15:40;;;;;;;;;;;13.50;99.90;;;;;;5094546;28;20394;-31
2023/10/17 12:18:07;;;;;;;;;;;13.60;99.90;;;;;;5093815;28;19978;-31
2023/10/17 12:20:40;;;;;;;;;;;13.70;99.90;;;;;;5092972;28;20719;-31
2023/10/17 12:23:08;;;;;;;;;;;13.70;99.90;;;;;;5109644;28;20007;-31
2023/10/17 12:25:36;;;;;;;;;;;13.70;99.90;;;;;;5111469;28;20001;-31
2023/10/17 12:28:03;;;;;;;;;;;13.70;99.90;;;;;;5108872;28;19938;-32
2023/10/17 12:30:35;;;;;;;;;;;13.70;99.90;;;;;;5082352;28;19996;-31
2023/10/17 12:33:02;;;;;;;;;;;13.80;99.90;;;;;;5090113;28;20360;-32
2023/10/17 12:35:29;;;;;;;;;;;13.80;99.90;;;;;;5110798;28;20003;-32
2023/10/17 12:37:57;;;;;;;;;;;13.80;99.90;;;;;;5094348;28;19928;-32
2023/10/17 12:40:25;;;;;;;;;;;13.80;99.90;;;;;;5094377;28;20391;-31
2023/10/17 12:42:51;;;;;;;;;;;13.80;99.90;;;;;;5111000;28;19984;-31
2023/10/17 12:45:19;;;;;;;;;;;13.80;99.90;;;;;;5109611;28;20746;-31
2023/10/17 12:47:47;;;;;;;;;;;13.90;99.90;;;;;;5112564;28;19965;-31
2023/10/17 12:50:14;;;;;;;;;;;13.90;99.90;;;;;;5094311;28;19969;-31
2023/10/17 12:52:41;;;;;;;;;;;14.00;99.90;;;;;;5093852;28;20054;-32
2023/10/17 12:55:08;;;;;;;;;;;14.00;99.90;;;;;;5111236;28;19939;-32
2023/10/17 12:57:36;;;;;;;;;;;14.00;99.90;;;;;;5094513;28;19938;-31
2023/10/17 13:00:09;;;;;;;;;;;14.00;99.90;;;;;;5090932;28;19931;-31
2023/10/17 13:02:35;;;;;;;;;;;14.00;99.90;;;;;;5112265;28;20040;-31
2023/10/17 13:05:05;;;;;;;;;;;14.00;99.90;;;;;;5094108;28;20368;-31
2023/10/17 13:07:31;;;;;;;;;;;14.00;99.90;;;;;;5093899;28;19931;-31
2023/10/17 13:09:58;;;;;;;;;;;14.10;99.90;;;;;;5093991;28;19981;-31
2023/10/17 13:12:25;;;;;;;;;;;14.10;99.90;;;;;;5094227;28;19969;-32
2023/10/17 13:14:52;;;;;;;;;;;14.10;99.90;;;;;;5101458;28;19935;-31
2023/10/17 13:17:21;;;;;;;;;;;14.10;99.90;;;;;;5097586;28;19927;-32
2023/10/17 13:19:50;;;;;;;;;;;14.10;99.90;;;;;;5107246;27;19959;-31
2023/10/17 13:22:18;;;;;;;;;;;14.00;99.90;;;;;;5096426;28;19924;-31
2023/10/17 13:24:45;;;;;;;;;;;14.00;99.90;;;;;;5114135;28;19928;-31
2023/10/17 13:27:11;;;;;;;;;;;14.10;99.90;;;;;;5095230;28;19924;-31
2023/10/17 13:29:38;;;;;;;;;;;14.10;99.90;;;;;;5104896;28;20303;-32
2023/10/17 13:32:07;;;;;;;;;;;14.10;99.90;;;;;;5096243;28;20023;-31
2023/10/17 13:34:34;;;;;;;;;;;14.10;99.90;;;;;;5092970;28;19924;-31
2023/10/17 13:37:04;;;;;;;;;;;14.10;99.90;;;;;;5094223;28;19924;-33
2023/10/17 13:39:32;;;;;;;;;;;14.10;99.90;;;;;;5095474;28;19930;-32
2023/10/17 13:41:59;;;;;;;;;;;14.10;99.90;;;;;;5094759;28;19927;-31
2023/10/17 13:44:25;;;;;;;;;;;14.00;99.90;;;;;;5088187;28;20405;-32
2023/10/17 13:46:52;;;;;;;;;;;13.90;99.90;;;;;;5107257;27;20168;-32
2023/10/17 13:49:19;;;;;;;;;;;13.90;99.90;;;;;;5092289;28;19958;-31
2023/10/17 13:51:47;;;;;;;;;;;13.90;99.90;;;;;;5093915;28;19924;-32
2023/10/17 13:54:14;;;;;;;;;;;13.90;99.90;;;;;;5114172;27;20027;-32
2023/10/17 13:56:42;;;;;;;;;;;14.00;99.90;;;;;;5096211;27;19962;-33
2023/10/17 13:59:10;;;;;;;;;;;13.90;99.90;;;;;;5092358;28;19924;-32
2023/10/17 14:01:41;;;;;;;;;;;13.80;99.90;;;;;;5111844;28;20414;-31
2023/10/17 14:04:09;;;;;;;;;;;13.70;99.90;;;;;;5094322;28;19973;-32
2023/10/17 14:06:38;;;;;;;;;;;13.70;99.90;;;;;;5110231;28;20019;-31
2023/10/17 14:09:07;;;;;;;;;;;13.60;99.90;;;;;;5111625;27;20010;-32
2023/10/17 14:11:37;;;;;;;;;;;13.50;99.90;;;;;;5092187;28;19938;-31
2023/10/17 14:14:05;;;;;;;;;;;13.40;99.90;;;;;;5111348;28;20069;-33
2023/10/17 14:16:31;;;;;;;;;;;13.30;99.90;;;;;;5090835;28;19977;-31
2023/10/17 14:19:13;;;;;;;;;;;13.20;99.90;;;;;;5112062;27;19945;-31
2023/10/17 14:21:43;;;;;;;;;;;13.10;99.90;;;;;;5093578;28;19960;-32
2023/10/17 14:24:11;;;;;;;;;;;13.00;99.90;;;;;;5091486;28;20345;-32
2023/10/17 14:26:37;;;;;;;;;;;12.90;99.90;;;;;;5095570;28;20333;-32
2023/10/17 14:29:07;;;;;;;;;;;12.90;99.90;;;;;;5095351;28;20037;-32
2023/10/17 14:31:32;;;;;;;;;;;12.80;99.90;;;;;;5093194;28;19960;-33
2023/10/17 14:34:00;;;;;;;;;;;12.80;99.90;;;;;;5108401;27;20472;-32
2023/10/17 14:36:27;;;;;;;;;;;12.70;99.90;;;;;;5111293;28;19924;-32
2023/10/17 14:38:54;;;;;;;;;;;12.70;99.90;;;;;;5108505;28;19930;-33
2023/10/17 14:41:22;;;;;;;;;;;12.70;99.90;;;;;;5090021;28;19977;-32
2023/10/17 14:43:50;;;;;;;;;;;12.60;99.90;;;;;;5109781;28;20007;-32
2023/10/17 14:46:20;;;;;;;;;;;12.60;99.90;;;;;;5091726;27;19946;-31
2023/10/17 14:48:47;;;;;;;;;;;12.50;99.90;;;;;;5086698;28;22071;-32
2023/10/17 14:51:14;;;;;;;;;;;12.50;99.90;;;;;;5096523;27;20367;-31
2023/10/17 14:53:42;;;;;;;;;;;12.40;99.90;;;;;;5098362;28;19924;-31
2023/10/17 14:56:12;;;;;;;;;;;12.30;99.90;;;;;;5111928;27;19924;-32
2023/10/17 14:58:40;;;;;;;;;;;12.30;99.90;;;;;;5087024;28;19980;-32
2023/10/17 15:01:07;;;;;;;;;;;12.20;99.90;;;;;;5093967;28;19924;-32
2023/10/17 15:03:36;;;;;;;;;;;12.20;99.90;;;;;;5106143;27;19932;-31
2023/10/17 15:06:03;;;;;;;;;;;12.10;99.90;;;;;;5109097;28;20007;-31
2023/10/17 15:08:31;;;;;;;;;;;12.10;99.90;;;;;;5101784;28;19930;-31
2023/10/17 15:11:03;;;;;;;;;;;12.00;99.90;;;;;;5097513;28;19924;-32
2023/10/17 15:13:30;;;;;;;;;;;12.00;99.90;;;;;;5095136;28;20011;-32
2023/10/17 15:15:56;;;;;;;;;;;12.00;99.90;;;;;;5091117;28;19924;-32
2023/10/17 15:18:24;;;;;;;;;;;11.90;99.90;;;;;;5092117;27;19983;-31
2023/10/17 15:20:52;;;;;;;;;;;11.90;99.90;;;;;;5107034;28;19931;-31
2023/10/17 15:23:18;;;;;;;;;;;11.90;99.90;;;;;;5086814;28;19931;-30
2023/10/17 15:25:45;;;;;;;;;;;11.90;99.90;;;;;;5108794;28;19977;-30
2023/10/17 15:28:12;;;;;;;;;;;11.80;99.90;;;;;;5109371;28;19923;-30
2023/10/17 15:30:40;;;;;;;;;;;11.70;99.90;;;;;;5109266;27;20014;-30
2023/10/17 15:33:06;;;;;;;;;;;11.70;99.90;;;;;;5108313;27;20037;-30
2023/10/17 15:35:33;;;;;;;;;;;11.70;99.90;;;;;;5093282;28;19974;-31
2023/10/17 15:38:01;;;;;;;;;;;11.60;99.90;;;;;;5089945;28;19992;-32
2023/10/17 15:40:28;;;;;;;;;;;11.50;99.90;;;;;;5110116;28;20341;-31
2023/10/17 15:42:55;;;;;;;;;;;11.50;99.90;;;;;;5103270;27;20296;-32
2023/10/17 15:45:22;;;;;;;;;;;11.40;99.90;;;;;;5101677;27;19923;-31
2023/10/17 15:47:49;;;;;;;;;;;11.40;99.90;;;;;;5107486;27;19924;-31
2023/10/17 15:50:18;;;;;;;;;;;11.40;99.90;;;;;;5112639;28;19981;-31
2023/10/17 15:52:45;;;;;;;;;;;11.30;99.90;;;;;;5088313;28;19923;-31
2023/10/17 15:55:13;;;;;;;;;;;11.30;99.90;;;;;;5092714;28;19924;-31